Akaska, South Dakota
Current Conditions -  °F | °C
As of 3:01 PM on Tuesday 25 Nov 2014 (Local Time) from KMBG Reporting Station
Light Snow Light Snow  
Wind Chill: -5°   Ceiling: 1000
Heat Index:   Visibility: 0.75mi
Dew Point: -1°   Wind: 13mph
Humidity: 92%   Direction: 180°S
Pressure: 29.71"   Gusts: NA
Location:  45.33°N, 100.12°W
Report Text: KMBG 252101Z AUTO 18011KT 3/4SM -SN BR OVC010 01/M01 A2971 RMK AO2 CIG 007V014 P0000 T00061006
Loading
Personal Weather Stations






























Interactive Weather Map New forecast layout! Learn more

10-Day Weather Forecast

Advertisements
Track Severe Weather on mobile